Wednesday, December 17, 2014, 6:03 PM EST

KPOU, Poughkeepsie Dutchess Cty

Location: Wappingers Falls, NY, United States Lat: 41.633
Local Time: 6:03 PM EST (23:03 GMT) Lon: -73.883
Time Zone: US/Eastern Elev: 167 ft

Show me the last for .
Show Decoded

2014-12-17 17:53 METAR KPOU 172253Z 28012G17KT 10SM SCT044 OVC055 07/01 A2986 RMK AO2 RAB37E50
                 SLP108 P0000 T00720006 =
2014-12-17 16:53 METAR KPOU 172153Z 27012G16KT 10SM OVC050 08/01 A2983 RMK AO2 RAE01 SLP099 P0000
                 T00830006 =
2014-12-17 15:53 METAR KPOU 172053Z 25010KT 10SM -RA OVC038 08/02 A2981 RMK AO2 RAB51 SLP091
                 P0000 60000 T00830017 53010 =
2014-12-17 14:53 METAR KPOU 171953Z 27011G19KT 10SM OVC036 10/03 A2979 RMK AO2 SLP085 T01000028 =
2014-12-17 13:53 METAR KPOU 171853Z 29008KT 10SM OVC036 11/03 A2977 RMK AO2 SLP080 T01060033 =
2014-12-17 12:53 METAR KPOU 171753Z 30006KT 10SM BKN033 11/04 A2978 RMK AO2 SLP081 T01060044
                 10111 20044 58019 =
2014-12-17 12:02 METAR KPOU 171702Z 00000KT 10SM OVC030 09/06 A2979 RMK AO2 T00890061 =
2014-12-17 11:53 METAR KPOU 171653Z 00000KT 10SM OVC029 09/06 A2980 RMK AO2 SLP087 T00940061 =
2014-12-17 10:53 METAR KPOU 171553Z 00000KT 6SM BR FEW008 SCT033 08/06 A2982 =
2014-12-17 10:35 METAR KPOU 171535Z 00000KT 5SM BR SCT006 07/05 A2983 RMK AO2 T00720050 =
2014-12-17 09:53 METAR KPOU 171453Z 00000KT 1 3/4SM BR OVC002 06/05 A2983 RMK AO2 SLP100
                 T00610050 54000 =
2014-12-17 09:32 METAR KPOU 171432Z 00000KT 3/4SM BR OVC002 06/04 A2983 RMK AO2 T00560044 =
2014-12-17 08:53 METAR KPOU 171353Z 00000KT 1/4SM FG VV002 05/04 A2983 RMK AO2 SLP100 T00500044 =
2014-12-17 08:40 METAR KPOU 171340Z 00000KT 1/4SM FG OVC002 05/04 A2983 RMK AO2 T00500039 =
2014-12-17 08:26 METAR KPOU 171326Z 00000KT 1/2SM FG OVC002 05/04 A2983 RMK AO2 T00500039 =
2014-12-17 08:14 METAR KPOU 171314Z 00000KT 1/2SM FG OVC003 05/04 A2983 RMK AO2 T00500044 =
2014-12-17 07:53 METAR KPOU 171253Z 00000KT 1/4SM FG VV003 05/04 A2983 RMK AO2 SLP099 T00500039 =
2014-12-17 07:24 METAR KPOU 171224Z 00000KT 1/4SM FG VV003 04/04 A2983 RMK AO2 T00440039 =
2014-12-17 07:13 METAR KPOU 171213Z 00000KT 1/2SM FG OVC002 04/04 A2983 RMK AO2 T00440039 =
2014-12-17 07:04 METAR KPOU 171204Z 00000KT 1/2SM FG VV003 05/04 A2983 RMK AO2 T00500044 =
2014-12-17 06:53 METAR KPOU 171153Z 00000KT 1/4SM FG VV003 04/04 A2983 RMK AO2 SLP099 60001 70023
                 T00440039 10050 20044 53007 =
2014-12-17 05:53 METAR KPOU 171053Z 00000KT 1/2SM FG OVC003 05/04 A2982 RMK AO2 SLP095 T00500039
                 =
2014-12-17 05:49 METAR KPOU 171049Z 00000KT 1/2SM FG VV003 05/04 A2981 RMK AO2 =
2014-12-17 04:53 METAR KPOU 170953Z 00000KT 1 3/4SM BR OVC003 05/04 A2981 RMK AO2 RAB17E29 SLP092
                 P0000 T00500039 =
2014-12-17 04:46 METAR KPOU 170946Z 00000KT 2SM BR OVC003 05/04 A2981 RMK AO2 RAB17E29 P0000
                 T00500044 =
2014-12-17 04:14 METAR KPOU 170914Z 00000KT 1 1/2SM BR OVC004 04/04 A2981 RMK AO2 T00440039 =
2014-12-17 03:53 METAR KPOU 170853Z 00000KT 3/4SM BR OVC004 04/04 A2982 RMK AO2 SLP095 60001
                 T00440039 56004 =
2014-12-17 03:32 METAR KPOU 170832Z 00000KT 3/4SM BR OVC004 04/04 A2982 RMK AO2 T00440039 =
2014-12-17 02:53 METAR KPOU 170753Z 00000KT 1 1/4SM BR OVC004 05/04 A2982 RMK AO2 RAE00B26E37
                 SLP097 P0001 T00500039 =
2014-12-17 02:33 METAR KPOU 170733Z 00000KT 1 1/2SM -RA BR BKN004 OVC009 04/03 A2983 RMK AO2
                 RAE00B26 P0000 T00440033 =
2014-12-17 02:28 METAR KPOU 170728Z 00000KT 2SM -RA BR SCT004 OVC009 05/04 A2983 RMK AO2 RAE00B26
                 P0000 T00500039 =
2014-12-17 01:53 METAR KPOU 170653Z 00000KT 4SM -RA BR SCT005 OVC009 05/04 A2982 RMK AO2 RAB36
                 SLP096 P0000 T00500039 =
2014-12-17 01:44 METAR KPOU 170644Z 00000KT 4SM -RA BR BKN005 OVC009 05/04 A2982 RMK AO2 RAB36
                 CIG 003V008 P0000 T00500039 =
2014-12-17 01:23 METAR KPOU 170623Z 00000KT 3SM BR OVC003 05/04 A2983 RMK AO2 T00500039 =
2014-12-17 01:03 METAR KPOU 170603Z 00000KT 2 1/2SM BR OVC003 05/04 A2983 RMK AO2 T00500039 =
2014-12-17 00:53 METAR KPOU 170553Z 00000KT 3SM BR OVC003 05/04 A2983 RMK AO2 CIG 002V006 SLP099
                 60019 T00500039 10056 20044 58025 =
2014-12-17 00:42 METAR KPOU 170542Z 00000KT 3SM BR OVC005 05/04 A2984 RMK AO2 CIG 003V006
                 T00500039 =
2014-12-17 00:32 METAR KPOU 170532Z 00000KT 2 1/2SM BR OVC005 05/04 A2984 RMK AO2 CIG 003V008
                 T00500039 =
2014-12-17 00:21 METAR KPOU 170521Z 00000KT 3SM BR OVC005 05/04 A2985 RMK AO2 CIG 003V008
                 T00500039 =
2014-12-16 23:53 METAR KPOU 170453Z 36003KT 2SM BR BKN005 OVC009 05/03 A2985 =
2014-12-16 23:44 METAR KPOU 170444Z 36003KT 2SM BR SCT005 OVC010 05/03 A2986 RMK AO2 T00500033 =
2014-12-16 23:35 METAR KPOU 170435Z 00000KT 2 1/2SM BR OVC010 05/04 A2987 RMK AO2 T00500039 =
2014-12-16 22:53 METAR KPOU 170353Z 36004KT 4SM BR SCT003 OVC010 05/04 A2988 RMK AO2 RAE05B24E38
                 SLP117 P0000 T00500039 =
2014-12-16 22:49 METAR KPOU 170349Z 02003KT 3SM BR SCT003 OVC010 05/04 A2989 RMK AO2 RAE05B24E38
                 P0000 =
2014-12-16 22:40 METAR KPOU 170340Z 02004KT 3SM BR BKN002 OVC010 05/04 A2989 RMK AO2 RAE05B24E38
                 P0000 T00500039 =
2014-12-16 22:15 METAR KPOU 170315Z 05003KT 2SM BR BKN006 OVC009 05/03 A2989 RMK AO2 RAE05 CIG
                 002V006 P0000 T00500033 =
2014-12-16 22:02 METAR KPOU 170302Z 00000KT 1 1/2SM -RA BR OVC006 05/04 A2990 RMK AO2 CIG 003V010
                 P0000 T00500039 =
2014-12-16 21:53 METAR KPOU 170253Z 00000KT 2SM -RA BR BKN006 OVC011 05/04 A2990 RMK AO2 SLP124
                 P0009 60019 T00500044 56010 =
2014-12-16 21:41 METAR KPOU 170241Z 00000KT 2 1/2SM -RA BR BKN006 OVC011 05/04 A2990 RMK AO2
                 P0009 T00500039 =
2014-12-16 21:30 METAR KPOU 170230Z 35004KT 2SM RA BR SCT005 BKN011 OVC042 05/04 A2990 =
2014-12-16 21:18 METAR KPOU 170218Z 35003KT 1 1/2SM -RA BR SCT005 BKN011 OVC042 05/04 A2990 RMK
                 AO2 P0006 T00500039 =
2014-12-16 20:53 METAR KPOU 170153Z 35003KT 1SM RA BR BKN009 OVC044 04/03 A2991 RMK AO2 SLP127
                 P0009 T00440033 =
2014-12-16 20:50 METAR KPOU 170150Z 02004KT 1SM RA BR BKN009 OVC044 04/03 A2991 RMK AO2 P0008 =
2014-12-16 20:32 METAR KPOU 170132Z 00000KT 1SM RA BR OVC010 04/03 A2992 RMK AO2 P0003 T00440033
                 =
2014-12-16 20:09 METAR KPOU 170109Z 00000KT 3/4SM -RA BR OVC009 04/03 A2992 RMK AO2 CIG 007V013
                 P0000 T00440033 =
2014-12-16 20:00 METAR KPOU 170100Z 00000KT 2SM -RA BR OVC009 04/03 A2993 =
2014-12-16 19:53 METAR KPOU 170053Z 00000KT 2SM -RA BR OVC011 04/03 A2993 RMK AO2 RAB25E46B52
                 SLP134 P0001 T00440033 =
2014-12-16 19:49 METAR KPOU 170049Z 00000KT 2SM BR OVC011 04/03 A2994 RMK AO2 RAB25E46 P0001 =
2014-12-16 19:31 METAR KPOU 170031Z 00000KT 1 3/4SM -RA BR OVC011 04/03 A2994 RMK AO2 RAB25 P0001
                 T00440033 =
2014-12-16 19:04 METAR KPOU 170004Z 00000KT 3SM BR OVC014 06/04 A2995 RMK AO2 T00560039 =
2014-12-16 18:53 METAR KPOU 162353Z 12003KT 3SM BR OVC015 05/04 A2995 RMK AO2 RAE10 SLP139 P0000
                 60003 T00500039 10067 20044 56002 =

Support USWX by starting your Amazon purchase here.